createdAt,value
2022-09-18T00:01:38.025Z,2.00
2022-09-18T00:04:09.163Z,2.17
2022-09-18T00:06:42.172Z,2.00
2022-09-18T00:09:12.969Z,1.97
2022-09-18T00:11:44.282Z,1.80
2022-09-18T00:14:15.143Z,2.20
2022-09-18T00:16:43.985Z,1.50
2022-09-18T00:19:12.701Z,1.80
2022-09-18T00:21:44.383Z,1.70
2022-09-18T00:24:13.467Z,1.97
2022-09-18T00:26:42.066Z,2.17
2022-09-18T00:29:11.190Z,1.77
2022-09-18T00:31:40.019Z,1.80
2022-09-18T00:34:11.391Z,2.40
2022-09-18T00:36:40.408Z,2.00
2022-09-18T00:39:10.095Z,2.40
2022-09-18T00:41:40.605Z,2.70
2022-09-18T00:44:40.578Z,2.17
2022-09-18T00:47:19.170Z,2.03
2022-09-18T00:49:52.580Z,1.73
2022-09-18T00:52:23.407Z,1.93
2022-09-18T00:54:56.987Z,1.90
2022-09-18T00:57:29.388Z,3.40
2022-09-18T00:59:58.625Z,1.83
2022-09-18T01:02:26.915Z,2.27
2022-09-18T01:04:55.670Z,3.03
2022-09-18T01:07:37.482Z,2.23
2022-09-18T01:10:19.036Z,1.90
2022-09-18T01:12:53.843Z,2.10
2022-09-18T01:15:35.294Z,2.03
2022-09-18T01:18:11.933Z,2.03
2022-09-18T01:21:13.125Z,2.37
2022-09-18T01:24:13.171Z,2.30
2022-09-18T01:26:56.346Z,2.40
2022-09-18T01:29:36.918Z,2.17
2022-09-18T01:32:09.854Z,3.00
2022-09-18T01:34:47.332Z,1.70
2022-09-18T01:37:21.482Z,1.70
2022-09-18T01:39:55.630Z,2.03
2022-09-18T01:42:27.265Z,2.10
2022-09-18T01:45:02.111Z,2.10
2022-09-18T01:47:37.142Z,2.33
2022-09-18T01:50:07.703Z,1.73
2022-09-18T01:52:41.480Z,1.90
2022-09-18T01:55:16.708Z,1.60
2022-09-18T01:57:50.998Z,1.77
2022-09-18T02:00:22.982Z,1.77
2022-09-18T02:02:55.730Z,1.70
2022-09-18T02:05:28.042Z,1.90
2022-09-18T02:08:05.831Z,2.10
2022-09-18T02:10:36.860Z,2.10
2022-09-18T02:13:08.554Z,1.60
2022-09-18T02:15:41.483Z,1.83
2022-09-18T02:18:14.397Z,1.60
2022-09-18T02:20:45.741Z,1.63
2022-09-18T02:23:14.060Z,1.90
2022-09-18T02:25:47.097Z,1.50
2022-09-18T02:28:18.702Z,1.93
2022-09-18T02:30:49.268Z,1.70
2022-09-18T02:33:28.692Z,1.80
2022-09-18T02:36:53.151Z,1.40
2022-09-18T02:39:42.381Z,1.60
2022-09-18T02:42:25.915Z,2.10
2022-09-18T02:45:04.886Z,1.80
2022-09-18T02:47:47.487Z,2.70
2022-09-18T02:50:19.536Z,2.00
2022-09-18T02:52:55.955Z,1.67
2022-09-18T02:55:28.867Z,2.00
2022-09-18T02:58:01.993Z,2.37
2022-09-18T03:00:32.299Z,2.07
2022-09-18T03:03:02.329Z,2.30
2022-09-18T03:05:30.723Z,2.87
2022-09-18T03:07:58.870Z,2.20
2022-09-18T03:10:27.054Z,1.90
2022-09-18T03:12:55.140Z,1.90
2022-09-18T03:15:23.462Z,2.20
2022-09-18T03:17:51.655Z,2.20
2022-09-18T03:20:21.126Z,1.80
2022-09-18T03:22:49.710Z,2.20
2022-09-18T03:25:17.873Z,2.07
2022-09-18T03:27:45.936Z,2.40
2022-09-18T03:30:14.251Z,2.10
2022-09-18T03:32:42.324Z,1.80
2022-09-18T03:35:11.010Z,2.17
2022-09-18T03:37:40.638Z,2.37
2022-09-18T03:40:10.311Z,2.93
2022-09-18T03:42:38.669Z,3.03
2022-09-18T03:45:08.252Z,4.43
2022-09-18T03:47:36.901Z,3.97
2022-09-18T03:50:06.090Z,5.57
2022-09-18T03:52:34.938Z,11.40
2022-09-18T03:55:04.904Z,9.47
2022-09-18T03:57:32.976Z,6.07
2022-09-18T04:00:01.088Z,4.30
2022-09-18T04:02:29.399Z,3.70
2022-09-18T04:04:57.902Z,3.03
2022-09-18T04:07:26.309Z,3.63
2022-09-18T04:09:54.793Z,3.13
2022-09-18T04:12:24.623Z,3.90
2022-09-18T04:14:52.797Z,3.83
2022-09-18T04:17:20.899Z,4.50
2022-09-18T04:19:53.421Z,4.33
2022-09-18T04:22:22.121Z,4.80
2022-09-18T04:24:51.518Z,4.30
2022-09-18T04:27:19.864Z,4.00
2022-09-18T04:29:49.430Z,4.23
2022-09-18T04:32:17.552Z,3.80
2022-09-18T04:34:45.723Z,3.70
2022-09-18T04:37:14.042Z,3.20
2022-09-18T04:39:42.200Z,3.10
2022-09-18T04:42:10.296Z,3.27
2022-09-18T04:44:38.731Z,2.60
2022-09-18T04:47:08.481Z,2.50
2022-09-18T04:49:36.595Z,3.33
2022-09-18T04:52:04.850Z,2.70
2022-09-18T04:54:33.001Z,3.07
2022-09-18T04:57:01.055Z,2.87
2022-09-18T04:59:29.122Z,2.80
2022-09-18T05:01:57.267Z,2.67
2022-09-18T05:04:26.909Z,2.80
2022-09-18T05:06:55.102Z,2.87
2022-09-18T05:09:23.296Z,3.10
2022-09-18T05:11:52.197Z,3.10
2022-09-18T05:14:20.471Z,3.20
2022-09-18T05:16:48.798Z,3.63
2022-09-18T05:19:16.860Z,3.70
2022-09-18T05:21:46.438Z,3.83
2022-09-18T05:24:14.781Z,3.70
2022-09-18T05:26:42.862Z,3.70
2022-09-18T05:29:10.977Z,3.70
2022-09-18T05:31:39.139Z,2.97
2022-09-18T05:34:07.279Z,3.10
2022-09-18T05:36:35.351Z,2.90
2022-09-18T05:39:05.206Z,2.80
2022-09-18T05:41:33.285Z,2.70
2022-09-18T05:44:01.416Z,2.80
2022-09-18T05:46:29.586Z,2.93
2022-09-18T05:48:57.804Z,2.80
2022-09-18T05:51:26.371Z,2.70
2022-09-18T05:53:54.493Z,2.80
2022-09-18T05:56:24.294Z,2.97
2022-09-18T05:58:52.455Z,2.63
2022-09-18T06:01:20.981Z,2.70
2022-09-18T06:03:50.830Z,2.90
2022-09-18T06:06:19.023Z,2.77
2022-09-18T06:08:47.361Z,2.57
2022-09-18T06:11:15.749Z,2.70
2022-09-18T06:13:49.063Z,2.50
2022-09-18T06:16:17.501Z,2.80
2022-09-18T06:18:45.891Z,2.90
2022-09-18T06:21:15.239Z,2.77
2022-09-18T06:23:43.665Z,2.60
2022-09-18T06:26:14.986Z,2.60
2022-09-18T06:28:45.051Z,2.50
2022-09-18T06:31:13.269Z,2.60
2022-09-18T06:33:41.420Z,2.90
2022-09-18T06:36:14.069Z,2.83
2022-09-18T06:38:42.171Z,2.93
2022-09-18T06:41:10.652Z,3.50
2022-09-18T06:43:38.850Z,3.20
2022-09-18T06:46:10.564Z,3.03
2022-09-18T06:48:38.752Z,3.30
2022-09-18T06:51:07.199Z,3.47
2022-09-18T06:53:35.367Z,3.10
2022-09-18T06:56:04.161Z,3.03
2022-09-18T06:58:32.227Z,2.90
2022-09-18T07:01:01.496Z,3.10
2022-09-18T07:03:31.247Z,3.17
2022-09-18T07:05:59.459Z,3.23
2022-09-18T07:08:27.650Z,2.90
2022-09-18T07:10:55.719Z,2.57
2022-09-18T07:13:24.154Z,2.73
2022-09-18T07:15:52.434Z,3.50
2022-09-18T07:18:21.381Z,3.03
2022-09-18T07:20:50.880Z,2.70
2022-09-18T07:23:19.140Z,3.10
2022-09-18T07:25:47.831Z,2.87
2022-09-18T07:28:15.911Z,2.87
2022-09-18T07:30:44.269Z,2.77
2022-09-18T07:33:12.379Z,3.07
2022-09-18T07:35:41.673Z,2.30
2022-09-18T07:38:11.760Z,2.70
2022-09-18T07:40:41.285Z,2.60
2022-09-18T07:43:11.646Z,2.70
2022-09-18T07:45:40.614Z,2.90
2022-09-18T07:48:09.234Z,3.50
2022-09-18T07:50:37.304Z,3.67
2022-09-18T07:53:07.621Z,2.90
2022-09-18T07:55:37.659Z,2.97
2022-09-18T07:58:08.023Z,2.67
2022-09-18T08:00:39.200Z,2.70
2022-09-18T08:03:09.556Z,3.40
2022-09-18T08:05:37.856Z,3.43
2022-09-18T08:08:06.418Z,2.80
2022-09-18T08:10:36.751Z,2.67
2022-09-18T08:13:05.106Z,2.70
2022-09-18T08:15:34.543Z,3.00
2022-09-18T08:18:02.767Z,2.63
2022-09-18T08:20:31.003Z,3.00
2022-09-18T08:22:59.268Z,2.70
2022-09-18T08:25:28.622Z,2.80
2022-09-18T08:28:01.754Z,2.87
2022-09-18T08:30:30.682Z,2.80
2022-09-18T08:33:00.162Z,2.87
2022-09-18T08:35:28.723Z,3.30
2022-09-18T08:37:56.823Z,2.67
2022-09-18T08:40:41.182Z,2.50
2022-09-18T08:43:23.234Z,3.10
2022-09-18T08:45:58.627Z,3.47
2022-09-18T08:48:30.105Z,3.30
2022-09-18T08:51:02.735Z,3.30
2022-09-18T08:53:35.925Z,3.57
2022-09-18T08:56:14.057Z,3.20
2022-09-18T08:58:50.287Z,3.10
2022-09-18T09:01:20.565Z,3.13
2022-09-18T09:03:56.717Z,2.70
2022-09-18T09:06:42.642Z,3.13
2022-09-18T09:09:25.573Z,3.30
2022-09-18T09:12:03.076Z,3.10
2022-09-18T09:14:56.571Z,3.30
2022-09-18T09:17:41.442Z,3.40
2022-09-18T09:20:37.320Z,3.30
2022-09-18T09:23:07.959Z,4.07
2022-09-18T09:25:45.835Z,3.57
2022-09-18T09:28:18.153Z,3.70
2022-09-18T09:30:54.718Z,3.13
2022-09-18T09:33:28.117Z,3.77
2022-09-18T09:36:02.910Z,4.30
2022-09-18T09:38:39.351Z,3.80
2022-09-18T09:41:27.790Z,3.73
2022-09-18T09:44:04.482Z,3.73
2022-09-18T09:46:49.575Z,3.60
2022-09-18T09:49:24.271Z,3.30
2022-09-18T09:52:00.002Z,3.40
2022-09-18T09:54:28.238Z,3.23
2022-09-18T09:57:09.044Z,3.77
2022-09-18T09:59:46.542Z,3.53
2022-09-18T10:02:33.812Z,3.40
2022-09-18T10:05:08.530Z,3.20
2022-09-18T10:07:42.416Z,3.60
2022-09-18T10:10:23.815Z,3.53
2022-09-18T10:12:55.997Z,3.77
2022-09-18T10:15:27.695Z,3.50
2022-09-18T10:18:00.828Z,3.10
2022-09-18T10:20:31.819Z,3.23
2022-09-18T10:23:04.050Z,3.83
2022-09-18T10:25:39.136Z,3.50
2022-09-18T10:28:07.241Z,4.07
2022-09-18T10:30:35.710Z,3.87
2022-09-18T10:33:05.356Z,4.03
2022-09-18T10:35:52.768Z,3.87
2022-09-18T10:38:32.393Z,3.53
2022-09-18T10:41:32.184Z,3.60
2022-09-18T10:44:08.704Z,3.50
2022-09-18T10:46:40.933Z,3.97
2022-09-18T10:49:21.065Z,3.63
2022-09-18T10:51:49.289Z,3.77
2022-09-18T10:54:19.932Z,3.70
2022-09-18T10:56:48.012Z,4.13
2022-09-18T10:59:34.127Z,3.93
2022-09-18T11:02:05.189Z,3.50
2022-09-18T11:04:35.648Z,3.60
2022-09-18T11:07:07.606Z,3.70
2022-09-18T11:09:39.870Z,3.37
2022-09-18T11:12:16.121Z,3.57
2022-09-18T11:14:48.083Z,3.60
2022-09-18T11:17:25.578Z,3.83
2022-09-18T11:19:57.264Z,3.40
2022-09-18T11:22:39.102Z,3.67
2022-09-18T11:25:23.014Z,3.70
2022-09-18T11:27:52.679Z,3.73
2022-09-18T11:30:23.672Z,3.73
2022-09-18T11:32:55.745Z,3.70
2022-09-18T11:35:27.735Z,3.03
2022-09-18T11:37:59.199Z,3.83
2022-09-18T11:40:31.565Z,3.43
2022-09-18T11:43:05.517Z,4.27
2022-09-18T11:45:51.051Z,3.90
2022-09-18T11:48:31.099Z,4.50
2022-09-18T11:51:03.516Z,4.57
2022-09-18T11:53:35.355Z,3.37
2022-09-18T11:56:08.587Z,3.17
2022-09-18T11:58:42.495Z,3.40
2022-09-18T12:01:22.163Z,3.20
2022-09-18T12:03:57.405Z,3.70
2022-09-18T12:06:36.096Z,3.43
2022-09-18T12:09:14.998Z,3.50
2022-09-18T12:11:50.160Z,3.13
2022-09-18T12:14:23.015Z,3.20
2022-09-18T12:16:59.023Z,3.50
2022-09-18T12:19:33.038Z,3.67
2022-09-18T12:22:10.208Z,3.30
2022-09-18T12:24:38.304Z,3.57
2022-09-18T12:27:16.558Z,4.03
2022-09-18T12:30:02.490Z,3.50
2022-09-18T12:32:56.156Z,2.90
2022-09-18T12:35:36.340Z,3.30
2022-09-18T12:38:18.380Z,3.57
2022-09-18T12:41:05.703Z,3.50
2022-09-18T12:43:50.577Z,3.07
2022-09-18T12:46:51.199Z,3.47
2022-09-18T12:49:36.901Z,3.30
2022-09-18T12:52:16.986Z,3.27
2022-09-18T12:55:21.603Z,3.00
2022-09-18T12:58:02.411Z,2.83
2022-09-18T13:00:31.402Z,3.50
2022-09-18T13:03:09.199Z,3.57
2022-09-18T13:05:41.527Z,3.00
2022-09-18T13:08:16.460Z,3.50
2022-09-18T13:10:47.687Z,3.30
2022-09-18T13:13:21.237Z,3.37
2022-09-18T13:15:52.754Z,3.53
2022-09-18T13:18:30.991Z,3.37
2022-09-18T13:21:01.116Z,3.17
2022-09-18T13:23:36.319Z,3.07
2022-09-18T13:26:09.036Z,2.93
2022-09-18T13:28:37.696Z,3.63
2022-09-18T13:31:28.152Z,2.90
2022-09-18T13:33:58.679Z,2.73
2022-09-18T13:36:29.599Z,3.30
2022-09-18T13:39:02.394Z,3.00
2022-09-18T13:41:43.255Z,3.80
2022-09-18T13:44:20.956Z,2.97
2022-09-18T13:46:50.862Z,2.90
2022-09-18T13:49:30.238Z,3.10
2022-09-18T13:52:18.556Z,3.00
2022-09-18T13:55:01.550Z,2.93
2022-09-18T13:57:34.269Z,3.10
2022-09-18T14:00:09.135Z,3.10
2022-09-18T14:02:38.807Z,3.30
2022-09-18T14:05:27.744Z,3.10
2022-09-18T14:08:10.685Z,3.57
2022-09-18T14:11:14.035Z,3.57
2022-09-18T14:13:54.377Z,3.77
2022-09-18T14:16:32.356Z,3.97
2022-09-18T14:19:05.864Z,3.70
2022-09-18T14:21:40.318Z,4.00
2022-09-18T14:24:38.497Z,3.43
2022-09-18T14:27:35.975Z,3.73
2022-09-18T14:30:17.237Z,3.50
2022-09-18T14:33:03.607Z,4.10
2022-09-18T14:35:37.181Z,3.90
2022-09-18T14:38:18.801Z,3.40
2022-09-18T14:40:54.393Z,4.17
2022-09-18T14:43:24.869Z,3.30
2022-09-18T14:45:55.263Z,4.00
2022-09-18T14:48:29.285Z,3.47
2022-09-18T14:51:06.745Z,3.67
2022-09-18T14:53:43.911Z,3.10
2022-09-18T14:56:17.696Z,3.73
2022-09-18T14:58:50.572Z,3.60
2022-09-18T15:01:25.007Z,3.40
2022-09-18T15:03:54.862Z,4.77
2022-09-18T15:06:26.912Z,3.20
2022-09-18T15:08:56.958Z,3.87
2022-09-18T15:11:37.539Z,3.50
2022-09-18T15:14:22.765Z,3.17
2022-09-18T15:16:59.456Z,3.40
2022-09-18T15:19:28.367Z,3.53
2022-09-18T15:21:57.242Z,4.80
2022-09-18T15:24:25.926Z,4.20
2022-09-18T15:26:56.873Z,3.50
2022-09-18T15:29:31.097Z,3.30
2022-09-18T15:32:04.198Z,3.30
2022-09-18T15:34:41.910Z,3.73
2022-09-18T15:37:20.744Z,3.50
2022-09-18T15:39:59.939Z,3.50
2022-09-18T15:42:30.620Z,3.40
2022-09-18T15:45:20.439Z,3.20
2022-09-18T15:47:50.524Z,3.73
2022-09-18T15:50:39.209Z,4.00
2022-09-18T15:53:26.821Z,3.80
2022-09-18T15:56:04.171Z,3.80
2022-09-18T15:58:43.474Z,3.50
2022-09-18T16:01:28.735Z,3.60
2022-09-18T16:04:08.718Z,3.80
2022-09-18T16:06:44.176Z,3.47
2022-09-18T16:09:25.618Z,4.13
2022-09-18T16:11:54.046Z,3.80
2022-09-18T16:14:42.070Z,3.37
2022-09-18T16:17:41.349Z,4.80
2022-09-18T16:20:26.881Z,3.83
2022-09-18T16:22:58.238Z,3.97
2022-09-18T16:25:29.562Z,3.40
2022-09-18T16:27:59.715Z,3.20
2022-09-18T16:30:29.782Z,3.40
2022-09-18T16:33:03.314Z,3.80
2022-09-18T16:35:32.825Z,3.60
2022-09-18T16:38:00.938Z,3.70
2022-09-18T16:40:31.382Z,3.40
2022-09-18T16:42:59.511Z,3.60
2022-09-18T16:45:28.342Z,3.63
2022-09-18T16:48:00.620Z,4.07
2022-09-18T16:50:29.265Z,3.70
2022-09-18T16:53:01.564Z,3.50
2022-09-18T16:55:31.890Z,3.50
2022-09-18T16:58:01.202Z,3.53
2022-09-18T17:00:29.529Z,4.07
2022-09-18T17:02:57.945Z,3.70
2022-09-18T17:05:26.211Z,4.83
2022-09-18T17:07:54.335Z,3.83
2022-09-18T17:10:24.102Z,4.37
2022-09-18T17:12:52.174Z,3.90
2022-09-18T17:15:20.426Z,3.30
2022-09-18T17:17:48.515Z,3.30
2022-09-18T17:20:17.971Z,4.07
2022-09-18T17:22:46.601Z,3.47
2022-09-18T17:25:16.119Z,3.03
2022-09-18T17:27:45.784Z,3.00
2022-09-18T17:30:14.351Z,2.80
2022-09-18T17:32:42.442Z,3.20
2022-09-18T17:35:11.602Z,2.97
2022-09-18T17:37:39.807Z,3.27
2022-09-18T17:40:09.115Z,3.53
2022-09-18T17:42:38.129Z,3.27
2022-09-18T17:45:08.981Z,3.63
2022-09-18T17:47:37.108Z,3.10
2022-09-18T17:50:06.311Z,3.00
2022-09-18T17:52:35.864Z,3.30
2022-09-18T17:55:04.416Z,3.33
2022-09-18T17:57:38.223Z,2.90
2022-09-18T18:00:09.967Z,3.83
2022-09-18T18:02:38.130Z,3.93
2022-09-18T18:05:07.071Z,3.10
2022-09-18T18:07:35.264Z,3.17
2022-09-18T18:10:04.564Z,4.40
2022-09-18T18:12:32.651Z,3.80
2022-09-18T18:15:00.844Z,2.90
2022-09-18T18:17:36.032Z,2.80
2022-09-18T18:20:05.291Z,3.37
2022-09-18T18:22:33.407Z,3.00
2022-09-18T18:25:01.536Z,2.90
2022-09-18T18:27:29.763Z,2.67
2022-09-18T18:29:57.850Z,3.20
2022-09-18T18:32:25.948Z,3.10
2022-09-18T18:34:55.559Z,3.10
2022-09-18T18:37:23.794Z,3.37
2022-09-18T18:39:52.659Z,3.17
2022-09-18T18:42:21.027Z,3.20
2022-09-18T18:44:49.280Z,2.67
2022-09-18T18:47:18.225Z,2.53
2022-09-18T18:49:46.351Z,2.20
2022-09-18T18:52:15.904Z,2.27
2022-09-18T18:54:44.311Z,2.40
2022-09-18T18:57:12.461Z,2.50
2022-09-18T18:59:40.739Z,2.60
2022-09-18T19:02:11.146Z,3.10
2022-09-18T19:04:40.614Z,2.40
2022-09-18T19:07:08.765Z,3.00
2022-09-18T19:09:38.543Z,3.47
2022-09-18T19:12:06.891Z,2.70
2022-09-18T19:14:38.061Z,2.50
2022-09-18T19:17:06.616Z,2.60
2022-09-18T19:19:34.743Z,2.40
2022-09-18T19:22:03.011Z,2.47
2022-09-18T19:24:31.371Z,2.87
2022-09-18T19:27:01.207Z,2.60
2022-09-18T19:29:30.670Z,2.43
2022-09-18T19:32:00.383Z,2.30
2022-09-18T19:34:28.617Z,2.60
2022-09-18T19:36:56.746Z,2.50
2022-09-18T19:39:24.926Z,2.50
2022-09-18T19:41:59.436Z,3.03
2022-09-18T19:44:35.081Z,2.57
2022-09-18T19:47:07.045Z,3.03
2022-09-18T19:49:38.867Z,2.13
2022-09-18T19:52:18.036Z,2.40
2022-09-18T19:54:46.175Z,2.17
2022-09-18T19:57:14.745Z,2.73
2022-09-18T19:59:44.233Z,3.00
2022-09-18T20:02:13.913Z,3.17
2022-09-18T20:04:42.125Z,3.33
2022-09-18T20:07:10.890Z,2.70
2022-09-18T20:09:40.380Z,2.80
2022-09-18T20:12:09.277Z,2.30
2022-09-18T20:14:37.386Z,2.30
2022-09-18T20:17:07.002Z,2.50
2022-09-18T20:19:35.574Z,2.30
2022-09-18T20:22:04.485Z,2.60
2022-09-18T20:24:33.305Z,2.50
2022-09-18T20:27:01.873Z,2.40
2022-09-18T20:29:30.557Z,2.53
2022-09-18T20:31:58.776Z,2.70
2022-09-18T20:34:28.404Z,2.90
2022-09-18T20:36:56.526Z,2.77
2022-09-18T20:39:24.721Z,3.07
2022-09-18T20:41:52.847Z,2.50
2022-09-18T20:44:21.066Z,2.90
2022-09-18T20:46:50.531Z,2.50
2022-09-18T20:49:18.652Z,2.30
2022-09-18T20:51:48.229Z,2.40
2022-09-18T20:54:19.344Z,2.17
2022-09-18T20:56:47.559Z,2.40
2022-09-18T20:59:18.607Z,2.40
2022-09-18T21:01:47.793Z,2.40
2022-09-18T21:04:19.655Z,2.30
2022-09-18T21:06:56.604Z,2.27
2022-09-18T21:09:26.520Z,2.50
2022-09-18T21:11:55.094Z,2.23
2022-09-18T21:14:24.700Z,2.20
2022-09-18T21:16:52.838Z,2.40
2022-09-18T21:19:21.426Z,2.20
2022-09-18T21:21:50.958Z,2.20
2022-09-18T21:24:19.280Z,2.60
2022-09-18T21:26:49.248Z,2.30
2022-09-18T21:29:20.893Z,2.30
2022-09-18T21:31:51.540Z,2.33
2022-09-18T21:34:23.511Z,2.23
2022-09-18T21:36:54.330Z,2.33
2022-09-18T21:39:22.501Z,2.40
2022-09-18T21:41:53.288Z,2.60
2022-09-18T21:44:24.800Z,2.20
2022-09-18T21:46:52.995Z,2.40
2022-09-18T21:49:22.856Z,2.40
2022-09-18T21:51:55.910Z,2.50
2022-09-18T21:54:25.492Z,2.20
2022-09-18T21:56:55.358Z,2.50
2022-09-18T21:59:25.319Z,2.17
2022-09-18T22:01:55.453Z,2.20
2022-09-18T22:04:26.318Z,2.27
2022-09-18T22:06:57.767Z,2.40
2022-09-18T22:09:28.120Z,2.20
2022-09-18T22:11:57.379Z,2.80
2022-09-18T22:14:28.743Z,2.20
2022-09-18T22:16:57.054Z,2.23
2022-09-18T22:19:25.186Z,2.10
2022-09-18T22:21:55.360Z,2.20
2022-09-18T22:24:26.874Z,2.40
2022-09-18T22:26:57.874Z,2.40
2022-09-18T22:29:27.766Z,2.17
2022-09-18T22:31:56.806Z,2.10
2022-09-18T22:34:28.477Z,2.30
2022-09-18T22:36:59.578Z,2.40
2022-09-18T22:39:28.698Z,2.23
2022-09-18T22:41:57.408Z,2.40
2022-09-18T22:44:25.614Z,2.40
2022-09-18T22:46:54.898Z,2.33
2022-09-18T22:49:24.293Z,2.20
2022-09-18T22:51:52.799Z,2.20
2022-09-18T22:54:28.370Z,2.20
2022-09-18T22:56:57.020Z,2.10
2022-09-18T22:59:26.697Z,2.10
2022-09-18T23:01:57.957Z,2.23
2022-09-18T23:04:29.904Z,2.17
2022-09-18T23:06:59.309Z,2.40
2022-09-18T23:09:29.718Z,2.30
2022-09-18T23:11:59.028Z,2.40
2022-09-18T23:14:29.177Z,2.37
2022-09-18T23:16:58.131Z,2.33
2022-09-18T23:19:28.249Z,2.20
2022-09-18T23:21:57.170Z,2.00
2022-09-18T23:24:26.263Z,2.10
2022-09-18T23:26:58.650Z,2.00
2022-09-18T23:29:28.521Z,2.30
2022-09-18T23:31:57.423Z,1.93
2022-09-18T23:34:29.231Z,2.23
2022-09-18T23:36:58.197Z,2.20
2022-09-18T23:39:28.749Z,2.03
2022-09-18T23:41:59.442Z,2.00
2022-09-18T23:44:30.562Z,2.30
2022-09-18T23:46:59.419Z,2.33
2022-09-18T23:49:28.345Z,2.10
2022-09-18T23:51:56.732Z,2.20
2022-09-18T23:54:26.391Z,1.90
2022-09-18T23:56:57.484Z,2.53
2022-09-18T23:59:26.912Z,2.10
